Facebook Twitter YouTube


Racing Home >Top Performers > trot

TOP PERFORMERS IN 2021

Trotters

Click on a link below to see the top 50 Trotters in that category. Only North American racing statistics are shown, with all earnings expressed in US currency.

  All Ages Earnings Wins Record
  2-Year-Olds Earnings Wins Record
  3-Year-Olds Earnings Wins Record
  Aged Earnings Wins Record

2-year-old Trotters by Record - 2021

Click on a column heading to sort these 50 rows only. To see a report of the top horses using other categories, please select a link at the top of the page.

Horse Name Age Sex Gait Sts 1st 2nd 3rd Earnings Record Size
VENERABLE 2 M T 3 3 0 0 $125,000 1:52.2 m
KING OF THE NORTH 2 H T 3 3 0 0 $125,000 1:52.4 m
LILBITALEXIS 2 M T 2 2 0 0 $20,000 1:53.1 m
TEMPORAL HANOVER 2 H T 3 2 1 0 $75,000 1:54.1 m
LAWS OF MOTION 2 H T 3 1 0 0 $13,750 1:54.2 m
MISSWALNER FASHION 2 M T 1 1 0 0 $10,000 1:54.2 m
MON CHEVAL 2 M T 1 1 0 0 $17,500 Q 1:54.2 m
SELFIE QUEEN 2 M T 3 1 1 0 $16,250 1:54.2 m
RAISED BY LINDY 2 M T 2 1 0 0 $12,500 1:54.3 m
DELILAH HANOVER 2 M T 3 1 0 1 $37,750 1:54.4 m
LETSDOIT S 2 H T 1 1 0 0 $10,000 1:54.4 m
MAJESTIC J 2 H T 3 2 0 1 $49,000 1:54.4 m
FAMOUS FATHER 2 H T 1 1 0 0 $10,000 1:55.0 m
FAST AS THE WIND 2 H T 2 2 0 0 $20,000 1:55.0 m
KEG STAND 2 H T 4 2 0 1 $66,276 1:55.1 f
S I P 2 H T 4 2 1 0 $89,130 1:55.1 f
PONDA ADVENTURE 2 G T 2 2 0 0 $28,000 1:55.1 s
PENELOPE J 2 M T 3 1 1 0 $18,750 1:55.1 m
PEYTON HANOVER 2 M T 4 1 0 2 $38,300 1:55.2 m
GIGONDAS 2 H T 1 1 0 0 $7,500 1:55.3 m
KEN'S WALNER 2 H T 2 0 0 1 $4,600 Q 1:55.3 m
EL TORO LOCO 2 H T 5 1 1 0 $5,100 1:55.4 f
JUSTICE 2 H T 2 2 0 0 $40,333 1:55.4 f
AMERICAN BEAUTY 2 M T 4 1 0 1 $18,602 1:55.4 m
GERTRUDE 2 M T 2 2 0 0 $49,633 Q 1:55.4 m
GLOBAL PANDEMIC 2 H T 4 2 2 0 $80,680 Q 1:55.4 m
BRICKHOUSE BABE 2 M T 3 1 0 0 $28,500 1:56.0 m
MORE THAN EVER 2 M T 2 1 1 0 $15,000 1:56.0 m
GARDEN STATE DEO 2 M T 2 0 1 0 $1,700 Q 1:56.1 h
SLIM JIMMY 2 H T 2 1 0 1 $24,800 1:56.1 h
KOSHER MAHONEY 2 G T 3 2 1 0 $64,270 1:56.1 f
FLEURIE 2 M T 2 2 0 0 $27,750 1:56.1 s
BUTTERFLY FACE S 2 M T 1 0 1 0 $5,000 Q 1:56.1 m
DISCLOSURE 2 M T 3 1 0 0 $14,500 1:56.1 m
LOOKS LIKE MONI 2 H T 2 1 0 0 $28,500 1:56.1 m
MIDNITE EXPRESS G 2 M T 1 0 0 0 $0 Q 1:56.1 m
BRANDED BY LINDY 2 H T 2 1 1 0 $25,350 1:56.2 f
DIXIECHICK HANOVER 2 M T 2 1 0 0 $17,500 1:56.2 f
DREAMONHIGH 2 M T 2 1 0 0 $27,428 1:56.2 f
HUSTLENOMICS 2 G T 3 0 0 0 $3,200 Q 1:56.2 f
COOL PAPA BELL 2 G T 3 3 0 0 $58,233 1:56.2 s
THE MIGHTY HILL 2 G T 3 2 0 0 $11,485 1:56.3 h
TIE ONE ON 2 M T 2 1 0 0 $7,788 1:56.3 f
DOVER IN MOTION 2 G T 1 1 0 0 $23,000 1:56.3 s
IWON'T BACKDOWN AS 2 G T 1 1 0 0 $23,250 1:56.3 s
WALL OF MONI 2 H T 4 0 0 1 $8,472 Q 1:56.3 m
CAVIAR GOLD 2 H T 2 2 0 0 $40,000 1:56.4 h
GABBYS BIT COIN 2 G T 2 2 0 0 $40,000 1:56.4 h
JOVIALITY S 2 M T 2 1 1 0 $29,433 1:56.4 h
THERESNOLIMIT S 2 H T 4 1 1 0 $20,550 1:56.4 f
CALLMESUE 2 M T 4 3 0 0 $22,000 1:56.4 s
SEVEN ON THE ROCKS 2 M T 2 0 2 0 $24,816 Q 1:56.4 s
GRACELYN HANOVER 2 M T 4 0 3 0 $17,500 Q 1:56.4 m
Updated: 07/28/2021

Looking for even more information? Pathway has expanded reports on every harness racing participant in North America, as well as online industry leaders statistics updated daily. Set up your free USTA Account at myaccount.ustrotting.com which will give you access to Pathway and the expanded Statistics reporting area. For more information on Pathway, please visit pathway.ustrotting.com.

Comments or questions on these reports, please contact webmaster@ustrotting.com.